Time;durP1;ratioP1;P1;durP2;ratioP2;P2;SDS_P1;SDS_P2;PMS_P1;PMS_P2;Temp;Humidity;BMP_temperature;BMP_pressure;BME280_temperature;BME280_humidity;BME280_pressure;Samples;Min_cycle;Max_cycle;Signal;HPM_P1;HPM_P2
2023/03/02 00:01:28;;;;;;;30.12;15.10;;;;;;;0.46;54.94;101015.83;1466987;89;21459;-79
2023/03/02 00:03:58;;;;;;;26.65;13.38;;;;;;;0.41;55.31;101020.42;1461476;89;22272;-79
2023/03/02 00:06:27;;;;;;;27.90;15.80;;;;;;;0.37;55.36;101013.18;1463177;89;21451;-79
2023/03/02 00:08:54;;;;;;;28.62;14.35;;;;;;;0.39;54.95;101012.66;1462792;89;22323;-79
2023/03/02 00:11:20;;;;;;;32.00;17.12;;;;;;;0.35;55.57;101008.52;1448313;89;21657;-79
2023/03/02 00:13:47;;;;;;;27.75;14.73;;;;;;;0.34;55.54;101009.87;1463578;89;21458;-79
2023/03/02 00:16:13;;;;;;;33.08;17.00;;;;;;;0.36;55.52;101008.90;1471334;89;21429;-79
2023/03/02 00:18:39;;;;;;;28.65;15.55;;;;;;;0.35;55.62;101008.52;1470676;88;21650;-79
2023/03/02 00:21:09;;;;;;;29.77;16.97;;;;;;;0.37;55.84;101009.27;1465591;88;21510;-79
2023/03/02 00:23:33;;;;;;;34.83;17.20;;;;;;;0.37;55.83;101009.27;1468167;88;21620;-79
2023/03/02 00:26:00;;;;;;;34.40;17.87;;;;;;;0.38;55.77;101007.08;1472811;88;21437;-79
2023/03/02 00:28:26;;;;;;;29.37;15.05;;;;;;;0.41;55.82;101018.66;1480648;88;21525;-79
2023/03/02 00:30:52;;;;;;;32.90;17.65;;;;;;;0.40;55.63;101018.28;1469143;88;21613;-80
2023/03/02 00:33:19;;;;;;;34.18;17.70;;;;;;;0.42;55.73;101009.92;1474987;88;21510;-80
2023/03/02 00:35:46;;;;;;;37.42;15.90;;;;;;;0.44;55.31;101014.62;1471118;88;21487;-80
2023/03/02 00:38:12;;;;;;;29.12;15.05;;;;;;;0.44;55.51;101008.11;1468999;88;21503;-80
2023/03/02 00:40:45;;;;;;;34.85;18.10;;;;;;;0.41;55.59;101010.84;1462883;88;21614;-80
2023/03/02 00:43:12;;;;;;;32.98;16.87;;;;;;;0.41;55.63;101010.84;1468338;88;21517;-80
2023/03/02 00:45:39;;;;;;;34.53;17.60;;;;;;;0.35;56.21;101005.91;1478691;88;21599;-78
2023/03/02 00:48:05;;;;;;;30.55;16.20;;;;;;;0.39;56.13;101012.66;1461796;88;21465;-80
2023/03/02 00:50:31;;;;;;;30.50;17.02;;;;;;;0.39;55.61;101007.45;1480778;88;21495;-80
2023/03/02 00:52:58;;;;;;;34.30;19.77;;;;;;;0.38;56.11;101004.48;1469989;88;21556;-78
2023/03/02 00:55:24;;;;;;;37.28;19.32;;;;;;;0.34;55.95;101004.20;1467119;88;21510;-79
2023/03/02 00:57:55;;;;;;;33.60;18.52;;;;;;;0.31;56.54;100998.30;1468183;88;21486;-80
2023/03/02 01:00:23;;;;;;;32.42;15.70;;;;;;;0.27;56.43;100994.99;1470436;88;21467;-80
2023/03/02 01:02:50;;;;;;;35.43;17.73;;;;;;;0.24;56.59;100991.23;1475612;88;22302;-80
2023/03/02 01:05:17;;;;;;;37.50;17.57;;;;;;;0.16;57.62;100995.45;1469683;88;21739;-79
2023/03/02 01:07:43;;;;;;;32.35;18.15;;;;;;;0.14;57.18;100984.25;1464925;88;21480;-79
2023/03/02 01:10:10;;;;;;;33.08;16.65;;;;;;;0.13;57.98;100981.73;1465104;88;21643;-78
2023/03/02 01:12:37;;;;;;;35.92;17.45;;;;;;;0.13;57.63;100979.13;1469508;88;21502;-79
2023/03/02 01:15:05;;;;;;;32.35;17.20;;;;;;;0.13;58.10;100979.13;1457329;88;21502;-79
2023/03/02 01:17:31;;;;;;;35.70;18.10;;;;;;;0.15;57.89;100982.52;1464178;88;21687;-80
2023/03/02 01:19:57;;;;;;;37.48;17.73;;;;;;;0.17;57.44;100979.37;1481836;88;21518;-80
2023/03/02 01:22:25;;;;;;;33.35;16.95;;;;;;;0.18;57.71;100981.09;1468781;88;21480;-79
2023/03/02 01:24:52;;;;;;;45.80;22.30;;;;;;;0.17;58.27;100979.37;1475203;88;21621;-79
2023/03/02 01:27:19;;;;;;;34.10;16.82;;;;;;;0.19;57.80;100973.66;1469678;88;21451;-80
2023/03/02 01:29:45;;;;;;;31.35;16.35;;;;;;;0.18;58.40;100970.67;1472268;88;21466;-79
2023/03/02 01:32:11;;;;;;;40.43;18.87;;;;;;;0.14;58.61;100966.03;1470709;88;21599;-79
2023/03/02 01:34:38;;;;;;;35.50;18.20;;;;;;;0.16;58.53;100973.79;1463872;88;21437;-79
2023/03/02 01:37:04;;;;;;;32.65;16.87;;;;;;;0.16;58.42;100965.98;1467490;88;21595;-79
2023/03/02 01:39:30;;;;;;;47.10;18.65;;;;;;;0.15;58.46;100970.81;1464141;88;21517;-79
2023/03/02 01:41:57;;;;;;;36.48;18.55;;;;;;;0.17;58.00;100964.62;1471895;88;21472;-79
2023/03/02 01:44:46;;;;;;;35.75;18.57;;;;;;;0.16;58.75;100963.38;1463293;88;21458;-78
2023/03/02 01:47:27;;;;;;;41.92;18.45;;;;;;;0.15;58.59;100959.09;1465422;88;21384;-80
2023/03/02 01:50:04;;;;;;;45.78;21.40;;;;;;;0.18;58.11;100958.95;1471744;88;21724;-79
2023/03/02 01:52:37;;;;;;;39.27;19.10;;;;;;;0.18;58.28;100958.95;1458987;88;21665;-78
2023/03/02 01:55:08;;;;;;;45.75;21.70;;;;;;;0.17;58.65;100956.81;1473035;88;22435;-79
2023/03/02 01:57:42;;;;;;;41.92;20.35;;;;;;;0.17;58.27;100954.64;1474876;88;21613;-79
2023/03/02 02:00:11;;;;;;;40.88;20.30;;;;;;;0.16;58.82;100946.46;1479398;88;21488;-78
2023/03/02 02:02:40;;;;;;;41.63;19.15;;;;;;;0.18;57.86;100949.84;1464067;88;21429;-80
2023/03/02 02:05:06;;;;;;;35.03;18.52;;;;;;;0.16;58.20;100952.97;1469928;88;22471;-79
2023/03/02 02:07:33;;;;;;;40.00;19.45;;;;;;;0.14;58.16;100954.32;1475143;88;22286;-79
2023/03/02 02:10:00;;;;;;;38.83;19.60;;;;;;;0.18;58.31;100949.84;1472389;88;21709;-79
2023/03/02 02:12:26;;;;;;;38.35;18.95;;;;;;;0.18;58.55;100952.45;1478397;88;21414;-79
2023/03/02 02:14:53;;;;;;;37.05;17.60;;;;;;;0.17;58.67;100949.44;1460526;88;21580;-79
2023/03/02 02:17:20;;;;;;;29.20;16.77;;;;;;;0.20;58.51;100954.08;1474126;88;21466;-80
2023/03/02 02:20:07;;;;;;;41.53;19.48;;;;;;;0.19;58.63;100950.22;1480354;88;21688;-79
2023/03/02 02:22:58;;;;;;;29.55;16.23;;;;;;;0.19;58.64;100952.37;1458388;88;21643;-79
2023/03/02 02:25:54;;;;;;;35.15;19.12;;;;;;;0.18;58.72;100957.66;1473217;88;21399;-78
2023/03/02 02:28:34;;;;;;;30.68;16.12;;;;;;;0.19;58.29;100956.73;1472984;88;21636;-79
2023/03/02 02:31:25;;;;;;;36.70;17.37;;;;;;;0.16;58.77;100955.57;1473997;88;21555;-78
2023/03/02 02:34:00;;;;;;;30.37;17.02;;;;;;;0.16;58.95;100955.11;1475958;88;21561;-78
2023/03/02 02:36:33;;;;;;;33.28;17.32;;;;;;;0.21;58.45;100956.22;1480211;88;21547;-81
2023/03/02 02:39:04;;;;;;;33.83;16.87;;;;;;;0.22;58.40;100956.13;1461619;88;21539;-79
2023/03/02 02:41:38;;;;;;;35.88;17.10;;;;;;;0.23;58.50;100962.18;1478074;88;22590;-78
2023/03/02 02:44:05;;;;;;;36.17;17.10;;;;;;;0.21;58.61;100961.42;1468185;88;21429;-80
2023/03/02 02:46:32;;;;;;;35.45;20.27;;;;;;;0.19;58.58;100956.73;1472638;88;21510;-79
2023/03/02 02:49:01;;;;;;;32.98;18.67;;;;;;;0.19;58.25;100960.64;1473378;88;21576;-79
2023/03/02 02:51:29;;;;;;;32.40;17.37;;;;;;;0.17;58.71;100965.05;1469758;88;21436;-79
2023/03/02 02:54:01;;;;;;;35.05;17.80;;;;;;;0.12;58.89;100953.56;1468728;88;21620;-80
2023/03/02 02:56:35;;;;;;;30.65;16.80;;;;;;;0.11;59.08;100954.92;1465099;88;21591;-79
2023/03/02 02:59:07;;;;;;;26.85;16.17;;;;;;;0.10;59.12;100959.75;1471401;88;22325;-79
2023/03/02 03:01:34;;;;;;;34.27;18.42;;;;;;;0.04;59.41;100954.81;1473167;88;21488;-80
2023/03/02 03:04:04;;;;;;;34.13;18.02;;;;;;;-0.01;59.67;100954.55;1478541;88;21525;-80
2023/03/02 03:06:37;;;;;;;31.15;17.02;;;;;;;-0.03;59.55;100951.19;1470958;88;21466;-80
2023/03/02 03:09:03;;;;;;;37.42;17.92;;;;;;;-0.05;59.50;100958.20;1476318;88;21429;-80
2023/03/02 03:11:33;;;;;;;33.23;17.70;;;;;;;-0.06;60.12;100953.05;1470045;88;21399;-80
2023/03/02 03:14:08;;;;;;;39.35;19.00;;;;;;;-0.08;59.95;100953.14;1472263;88;22361;-80
2023/03/02 03:16:37;;;;;;;31.73;17.25;;;;;;;-0.08;59.76;100949.23;1480744;88;21621;-80
2023/03/02 03:19:24;;;;;;;38.83;16.87;;;;;;;-0.10;60.17;100943.24;1475765;88;22368;-79
2023/03/02 03:21:54;;;;;;;32.48;15.80;;;;;;;-0.08;60.18;100947.09;1471945;88;21480;-79
2023/03/02 03:24:22;;;;;;;30.08;17.10;;;;;;;-0.11;60.48;100940.73;1467615;88;21659;-78
2023/03/02 03:26:49;;;;;;;40.17;19.05;;;;;;;-0.10;59.88;100939.80;1467232;88;21526;-79
2023/03/02 03:29:18;;;;;;;33.73;17.35;;;;;;;-0.11;60.28;100939.42;1465890;88;21615;-78
2023/03/02 03:31:44;;;;;;;34.43;18.20;;;;;;;-0.10;59.94;100939.34;1466626;88;21539;-79
2023/03/02 03:34:11;;;;;;;31.90;17.90;;;;;;;-0.14;60.22;100940.86;1473928;88;21680;-78
2023/03/02 03:36:37;;;;;;;35.63;17.17;;;;;;;-0.15;60.23;100943.05;1469480;88;21450;-78
2023/03/02 03:39:05;;;;;;;33.92;17.12;;;;;;;-0.18;60.67;100940.59;1481914;88;22483;-79
2023/03/02 03:41:32;;;;;;;36.23;17.17;;;;;;;-0.20;60.46;100939.37;1470526;88;21592;-79
2023/03/02 03:44:01;;;;;;;32.83;17.42;;;;;;;-0.24;60.92;100936.03;1468699;88;21933;-80
2023/03/02 03:46:27;;;;;;;36.38;18.25;;;;;;;-0.26;60.99;100939.61;1452884;88;22472;-80
2023/03/02 03:48:54;;;;;;;33.38;17.20;;;;;;;-0.28;60.90;100933.19;1469721;88;21444;-80
2023/03/02 03:51:23;;;;;;;35.43;16.97;;;;;;;-0.28;60.98;100932.34;1476671;88;21451;-78
2023/03/02 03:53:58;;;;;;;38.28;17.95;;;;;;;-0.30;60.79;100935.00;1477503;88;21739;-77
2023/03/02 03:56:18;;;;;;;41.08;19.70;;;;;;;-0.28;60.65;100927.98;1469163;88;22398;-78
2023/03/02 03:58:44;;;;;;;42.83;19.87;;;;;;;-0.27;60.68;100936.16;1471339;88;22553;-77
2023/03/02 04:01:10;;;;;;;40.90;20.17;;;;;;;-0.28;60.37;100929.28;1473679;88;21414;-77
2023/03/02 04:03:36;;;;;;;37.50;17.60;;;;;;;-0.26;60.56;100929.20;1470503;88;21606;-77
2023/03/02 04:06:03;;;;;;;36.13;18.05;;;;;;;-0.34;61.66;100923.05;1473624;88;21457;-78
2023/03/02 04:08:29;;;;;;;34.15;18.00;;;;;;;-0.35;61.67;100928.30;1468754;88;22478;-78
2023/03/02 04:10:55;;;;;;;31.30;15.90;;;;;;;-0.35;61.00;100930.44;1468549;88;21386;-77
2023/03/02 04:13:21;;;;;;;33.73;19.02;;;;;;;-0.38;61.56;100927.97;1476812;88;21694;-79
2023/03/02 04:15:48;;;;;;;40.45;19.60;;;;;;;-0.41;61.56;100927.27;1470326;88;21503;-78
2023/03/02 04:18:15;;;;;;;36.25;18.75;;;;;;;-0.43;61.78;100936.88;1465715;88;22576;-78
2023/03/02 04:20:41;;;;;;;32.48;16.97;;;;;;;-0.44;62.06;100932.59;1467571;88;21444;-79
2023/03/02 04:23:07;;;;;;;32.23;17.67;;;;;;;-0.47;62.08;100926.61;1471335;88;21407;-78
2023/03/02 04:25:34;;;;;;;40.15;19.52;;;;;;;-0.43;61.13;100930.38;1469071;88;21654;-77
2023/03/02 04:28:00;;;;;;;34.45;18.40;;;;;;;-0.45;61.64;100929.16;1463467;89;21488;-78
2023/03/02 04:30:27;;;;;;;36.33;19.32;;;;;;;-0.43;61.57;100932.55;1461858;89;21429;-79
2023/03/02 04:32:56;;;;;;;40.70;19.32;;;;;;;-0.42;61.58;100930.33;1463477;89;22106;-78
2023/03/02 04:35:24;;;;;;;34.33;19.12;;;;;;;-0.42;61.48;100937.30;1467698;89;21392;-79
2023/03/02 04:37:50;;;;;;;36.05;17.45;;;;;;;-0.44;61.26;100933.44;1448320;89;21495;-78
2023/03/02 04:40:17;;;;;;;36.63;18.57;;;;;;;-0.44;61.83;100934.73;1466618;89;21467;-78
2023/03/02 04:42:43;;;;;;;31.68;17.90;;;;;;;-0.48;61.47;100934.03;1464545;89;21613;-78
2023/03/02 04:45:11;;;;;;;42.83;19.90;;;;;;;-0.49;61.47;100924.55;1461812;89;21452;-79
2023/03/02 04:47:38;;;;;;;34.20;18.42;;;;;;;-0.50;61.42;100924.60;1457942;89;21452;-79
2023/03/02 04:50:06;;;;;;;39.30;18.50;;;;;;;-0.51;61.56;100921.63;1458837;89;22487;-79
2023/03/02 04:52:32;;;;;;;37.95;19.37;;;;;;;-0.54;62.14;100921.75;1458674;89;21481;-79
2023/03/02 04:54:58;;;;;;;38.98;18.40;;;;;;;-0.56;61.64;100919.20;1459362;89;21532;-77
2023/03/02 04:57:24;;;;;;;47.75;21.27;;;;;;;-0.55;61.52;100919.58;1458032;89;21681;-78
2023/03/02 04:59:50;;;;;;;40.73;19.80;;;;;;;-0.56;61.58;100921.80;1465301;89;22405;-80
2023/03/02 05:02:17;;;;;;;37.88;20.37;;;;;;;-0.55;61.13;100919.58;1466360;89;21385;-81
2023/03/02 05:04:43;;;;;;;37.35;19.67;;;;;;;-0.56;61.69;100923.56;1461712;89;21429;-79
2023/03/02 05:07:09;;;;;;;36.93;19.17;;;;;;;-0.55;61.46;100927.84;1461928;89;21348;-79
2023/03/02 05:09:35;;;;;;;44.83;18.27;;;;;;;-0.55;61.75;100927.84;1465550;89;22508;-78
2023/03/02 05:12:02;;;;;;;31.97;17.27;;;;;;;-0.58;62.08;100924.91;1464294;89;21408;-78
2023/03/02 05:14:29;;;;;;;32.65;17.55;;;;;;;-0.65;62.54;100931.30;1466149;89;21466;-78
2023/03/02 05:16:56;;;;;;;35.58;19.67;;;;;;;-0.63;62.23;100928.19;1471351;89;21458;-79
2023/03/02 05:19:22;;;;;;;36.40;18.73;;;;;;;-0.63;61.99;100926.89;1457601;89;22538;-79
2023/03/02 05:21:48;;;;;;;30.88;16.75;;;;;;;-0.61;62.33;100921.61;1465755;89;21452;-78
2023/03/02 05:24:14;;;;;;;33.18;18.65;;;;;;;-0.63;62.47;100922.98;1461895;89;21496;-78
2023/03/02 05:26:41;;;;;;;38.48;20.20;;;;;;;-0.61;62.42;100928.94;1473772;88;22523;-78
2023/03/02 05:29:08;;;;;;;37.42;18.25;;;;;;;-0.59;62.74;100929.73;1475489;88;21480;-78
2023/03/02 05:31:39;;;;;;;39.13;19.25;;;;;;;-0.57;62.56;100926.62;1470089;88;21658;-79
2023/03/02 05:34:09;;;;;;;35.05;18.27;;;;;;;-0.54;62.96;100921.75;1461624;88;21540;-78
2023/03/02 05:36:36;;;;;;;41.45;19.07;;;;;;;-0.49;62.28;100927.58;1473661;88;21525;-78
2023/03/02 05:39:04;;;;;;;41.53;20.60;;;;;;;-0.41;62.19;100922.91;1461395;88;21481;-78
2023/03/02 05:41:31;;;;;;;34.58;18.55;;;;;;;-0.36;62.24;100921.42;1465744;88;21643;-79
2023/03/02 05:43:57;;;;;;;40.48;19.98;;;;;;;-0.30;62.26;100923.75;1469722;88;21481;-78
2023/03/02 05:46:24;;;;;;;31.05;17.82;;;;;;;-0.24;62.02;100925.63;1479031;88;21583;-79
2023/03/02 05:48:51;;;;;;;45.17;23.18;;;;;;;-0.16;61.97;100927.06;1471370;88;22376;-79
2023/03/02 05:51:17;;;;;;;37.17;17.80;;;;;;;-0.13;62.26;100929.06;1472126;88;21643;-78
2023/03/02 05:53:43;;;;;;;33.50;18.32;;;;;;;-0.07;61.83;100934.00;1473880;88;21393;-79
2023/03/02 05:56:09;;;;;;;35.70;16.77;;;;;;;-0.02;61.59;100932.05;1476154;88;21398;-78
2023/03/02 05:58:36;;;;;;;32.05;17.20;;;;;;;0.03;61.69;100929.69;1477801;88;21480;-78
2023/03/02 06:01:08;;;;;;;39.83;19.52;;;;;;;0.05;61.29;100938.28;1468255;88;22416;-78
2023/03/02 06:03:34;;;;;;;36.68;18.92;;;;;;;0.12;61.66;100937.11;1474917;88;21355;-79
2023/03/02 06:06:00;;;;;;;38.40;18.07;;;;;;;0.18;61.29;100940.73;1482456;88;21466;-80
2023/03/02 06:08:27;;;;;;;42.70;18.42;;;;;;;0.26;61.18;100943.84;1476697;88;21669;-80
2023/03/02 06:10:56;;;;;;;38.53;18.12;;;;;;;0.31;60.97;100945.76;1476955;88;21333;-79
2023/03/02 06:13:23;;;;;;;42.13;19.90;;;;;;;0.37;60.75;100941.57;1476630;88;21532;-79
2023/03/02 06:15:49;;;;;;;34.50;16.73;;;;;;;0.45;60.65;100940.77;1472616;88;21585;-79
2023/03/02 06:18:15;;;;;;;35.65;16.10;;;;;;;0.53;60.33;100944.33;1464929;88;21565;-80
2023/03/02 06:20:42;;;;;;;34.33;18.70;;;;;;;0.63;60.28;100946.04;1471121;88;22398;-79
2023/03/02 06:23:10;;;;;;;34.90;18.27;;;;;;;0.73;60.18;100946.02;1472565;88;21576;-79
2023/03/02 06:25:40;;;;;;;33.15;18.10;;;;;;;0.85;60.27;100945.89;1467998;88;21562;-79
2023/03/02 06:28:06;;;;;;;37.50;18.67;;;;;;;0.96;59.95;100947.53;1469076;88;21518;-79
2023/03/02 06:30:33;;;;;;;33.35;17.87;;;;;;;1.08;59.76;100944.78;1467306;88;22390;-78
2023/03/02 06:32:59;;;;;;;33.77;18.20;;;;;;;1.21;59.65;100948.93;1469184;88;22354;-79
2023/03/02 06:35:25;;;;;;;43.83;17.30;;;;;;;1.27;58.91;100943.45;1469516;88;21747;-79
2023/03/02 06:37:51;;;;;;;31.50;17.33;;;;;;;1.39;59.01;100940.69;1473539;88;21866;-80
2023/03/02 06:40:20;;;;;;;32.03;16.80;;;;;;;1.47;58.43;100943.77;1466306;88;21786;-79
2023/03/02 06:42:46;;;;;;;35.73;20.07;;;;;;;1.47;57.54;100939.38;1474161;88;21683;-79
2023/03/02 06:45:14;;;;;;;30.60;16.80;;;;;;;1.56;58.06;100940.69;1476428;88;21721;-79
2023/03/02 06:47:40;;;;;;;27.97;16.07;;;;;;;1.64;57.93;100950.71;1469944;88;21773;-79
2023/03/02 06:50:09;;;;;;;34.73;17.37;;;;;;;1.74;58.15;100944.95;1468457;88;21807;-80
2023/03/02 06:52:35;;;;;;;30.93;16.50;;;;;;;1.83;57.67;100941.03;1476280;88;21679;-79
2023/03/02 06:55:03;;;;;;;28.70;15.90;;;;;;;1.93;57.46;100950.55;1469953;88;22537;-79
2023/03/02 06:57:32;;;;;;;31.87;16.70;;;;;;;2.05;57.38;100951.21;1462635;88;21479;-78
2023/03/02 06:59:57;;;;;;;32.10;16.13;;;;;;;2.14;56.54;100950.72;1472906;88;21667;-85
2023/03/02 07:02:23;;;;;;;32.00;17.03;;;;;;;2.24;56.67;100951.94;1470848;88;21645;-85
2023/03/02 07:04:50;;;;;;;29.87;17.33;;;;;;;2.33;56.45;100954.96;1474405;88;21942;-85
2023/03/02 07:07:16;;;;;;;26.47;14.90;;;;;;;2.40;55.91;100955.03;1469262;88;22582;-85
2023/03/02 07:09:42;;;;;;;28.53;15.57;;;;;;;2.48;55.49;100955.47;1473964;88;21654;-85
2023/03/02 07:12:08;;;;;;;24.60;15.33;;;;;;;2.61;55.65;100956.47;1472802;88;21678;-83
2023/03/02 07:14:35;;;;;;;416.67;211.17;;;;;;;2.73;55.01;100965.41;1471064;88;21597;-82
2023/03/02 07:17:04;;;;;;;89.53;45.57;;;;;;;2.87;55.46;100963.34;1476539;88;21782;-81
2023/03/02 07:19:30;;;;;;;59.83;31.30;;;;;;;2.99;55.55;100965.27;1471824;88;21723;-82
2023/03/02 07:21:56;;;;;;;200.23;95.90;;;;;;;3.09;54.01;100969.06;1475132;88;22135;-82
2023/03/02 07:24:22;;;;;;;156.30;75.03;;;;;;;3.25;55.09;100967.75;1476912;88;22631;-81
2023/03/02 07:26:49;;;;;;;108.70;63.13;;;;;;;3.36;54.21;100964.49;1455063;88;22250;-81
2023/03/02 07:29:15;;;;;;;35.00;20.60;;;;;;;3.51;53.88;100968.86;1450837;89;21672;-80
2023/03/02 07:31:43;;;;;;;26.00;14.17;;;;;;;3.67;54.02;100969.27;1473346;89;21899;-82
2023/03/02 07:34:09;;;;;;;24.57;14.63;;;;;;;3.76;52.89;100967.41;1467697;89;21700;-81
2023/03/02 07:40:41;;;;;;;33.37;17.70;;;;;;;3.89;51.39;100956.59;1454028;89;22411;-80
2023/03/02 07:43:14;;;;;;;25.00;13.73;;;;;;;4.07;52.44;100951.55;1386993;89;22578;-81
2023/03/02 07:45:40;;;;;;;27.97;13.63;;;;;;;4.17;51.66;100946.61;1388266;89;21813;-81
2023/03/02 07:48:06;;;;;;;25.57;13.50;;;;;;;4.15;50.75;100951.56;1397192;89;21963;-80
2023/03/02 07:50:32;;;;;;;18.73;11.60;;;;;;;4.32;51.82;100950.06;1391277;89;21766;-83
2023/03/02 07:52:58;;;;;;;24.50;13.13;;;;;;;4.32;51.82;100950.06;1391557;89;21897;-84
2023/03/02 07:55:25;;;;;;;22.63;12.27;;;;;;;4.59;50.88;100936.16;1374811;90;22704;-81
2023/03/02 07:57:51;;;;;;;22.27;11.47;;;;;;;4.70;50.18;100939.78;1391016;89;22082;-82
2023/03/02 08:00:19;;;;;;;19.63;10.17;;;;;;;4.91;49.43;100943.29;1396820;89;22237;-82
2023/03/02 08:02:45;;;;;;;20.50;11.67;;;;;;;4.96;49.87;100935.50;1549881;89;22052;-81
2023/03/02 08:05:12;;;;;;;23.30;13.27;;;;;;;4.96;49.87;100935.50;1391250;89;22350;-80
2023/03/02 08:07:42;;;;;;;22.50;11.67;;;;;;;5.13;50.20;100942.75;1485748;89;23014;-81
2023/03/02 08:10:10;;;;;;;19.35;11.20;;;;;;;5.08;48.41;100939.58;1387089;89;22067;-82
2023/03/02 08:12:36;;;;;;;17.30;10.47;;;;;;;5.09;48.69;100943.88;1389515;89;21578;-82
2023/03/02 08:15:03;;;;;;;20.13;12.13;;;;;;;5.24;49.17;100933.71;1391713;89;22052;-82
2023/03/02 08:17:29;;;;;;;23.23;12.87;;;;;;;5.40;49.06;100933.05;1390893;89;21423;-82
2023/03/02 08:19:55;;;;;;;18.43;10.07;;;;;;;5.58;49.44;100934.07;1396824;89;22127;-82
2023/03/02 08:22:21;;;;;;;17.97;9.27;;;;;;;5.66;48.12;100926.52;1549908;89;23094;-81
2023/03/02 08:24:47;;;;;;;17.73;10.03;;;;;;;5.79;48.01;100929.17;1391489;89;22107;-82
2023/03/02 08:27:14;;;;;;;18.57;12.20;;;;;;;5.78;47.97;100928.34;1375101;90;22056;-82
2023/03/02 08:29:41;;;;;;;24.37;12.40;;;;;;;6.00;48.61;100931.66;1522002;88;21392;-81
2023/03/02 08:32:07;;;;;;;17.27;10.37;;;;;;;6.12;48.30;100933.08;1395753;88;21437;-81
2023/03/02 08:34:33;;;;;;;17.13;9.43;;;;;;;6.26;47.70;100925.91;1396268;88;22295;-81
2023/03/02 08:36:59;;;;;;;17.87;9.83;;;;;;;6.43;47.75;100927.83;1551892;88;21347;-81
2023/03/02 08:39:29;;;;;;;19.87;8.77;;;;;;;6.59;48.10;100934.14;1396458;88;21399;-80
2023/03/02 08:41:54;;;;;;;14.53;8.80;;;;;;;6.76;47.84;100935.08;1393838;88;21415;-81
2023/03/02 08:44:20;;;;;;;15.00;8.90;;;;;;;6.89;46.90;100940.31;1401779;88;22257;-83
2023/03/02 08:46:50;;;;;;;17.13;9.53;;;;;;;7.06;47.33;100940.41;1395624;88;21592;-83
2023/03/02 08:49:18;;;;;;;22.70;9.93;;;;;;;7.08;46.89;100929.27;1555192;88;21422;-85
2023/03/02 08:51:52;;;;;;;18.63;8.67;;;;;;;6.99;45.83;100927.70;1548808;88;21533;-81
2023/03/02 08:54:15;;;;;;;14.35;7.95;;;;;;;7.20;46.55;100937.59;1545157;88;21385;-83
2023/03/02 08:56:43;;;;;;;15.93;9.63;;;;;;;7.14;45.75;100931.47;1395991;88;21454;-82
2023/03/02 08:59:12;;;;;;;13.60;8.23;;;;;;;7.13;45.74;100927.97;1399963;88;21333;-81
2023/03/02 09:01:39;;;;;;;20.33;9.90;;;;;;;7.01;45.37;100928.89;1555961;88;21356;-80
2023/03/02 09:04:08;;;;;;;15.43;8.83;;;;;;;7.06;46.11;100934.66;1395085;88;22362;-81
2023/03/02 09:06:39;;;;;;;15.20;9.63;;;;;;;7.30;46.55;100929.84;1453505;88;22368;-85
2023/03/02 09:09:06;;;;;;;19.77;10.57;;;;;;;7.51;46.66;100932.66;1471404;88;21436;-86
2023/03/02 09:11:33;;;;;;;17.80;9.47;;;;;;;7.51;45.72;100926.94;1471576;88;21591;-86
2023/03/02 09:21:03;;;;;;;18.40;10.50;;;;;;;8.27;46.75;100919.34;1413031;88;21465;-85
2023/03/02 09:23:30;;;;;;;20.83;9.73;;;;;;;8.57;46.24;100914.32;1471676;88;21591;-85
2023/03/02 09:25:57;;;;;;;18.87;7.67;;;;;;;8.84;46.49;100913.05;1469608;88;21561;-85
2023/03/02 09:28:27;;;;;;;19.77;9.53;;;;;;;9.00;44.27;100909.50;1470824;88;21466;-86
2023/03/02 09:30:57;;;;;;;14.10;8.20;;;;;;;9.27;43.82;100900.28;1458245;89;21577;-86
2023/03/02 09:33:24;;;;;;;15.48;9.53;;;;;;;9.21;42.28;100908.23;1460170;89;22411;-87
2023/03/02 09:35:51;;;;;;;15.53;7.63;;;;;;;9.61;44.64;100906.22;1461653;89;21570;-87
2023/03/02 09:38:17;;;;;;;12.63;7.83;;;;;;;9.96;42.59;100898.91;1463666;89;21473;-84
2023/03/02 09:41:12;;;;;;;15.07;7.67;;;;;;;10.25;43.14;100902.50;1465316;88;21436;-85
2023/03/02 09:43:59;;;;;;;15.87;9.10;;;;;;;10.44;42.42;100903.55;1463781;89;21452;-87
2023/03/02 09:46:52;;;;;;;12.53;7.53;;;;;;;11.00;41.61;100897.66;1459623;88;22258;-84
2023/03/02 09:54:13;;;;;;;11.17;5.80;;;;;;;11.89;40.31;100889.47;1440723;89;21473;-84
2023/03/02 09:56:49;;;;;;;11.03;6.75;;;;;;;11.91;37.67;100886.16;1462517;88;21518;-85
2023/03/02 09:59:24;;;;;;;9.87;6.27;;;;;;;11.41;38.61;100894.36;1450444;89;21488;-84
2023/03/02 10:02:05;;;;;;;12.57;7.93;;;;;;;12.20;38.21;100886.08;1465747;88;21562;-86
2023/03/02 10:04:42;;;;;;;12.40;7.23;;;;;;;12.73;37.67;100879.19;1457980;89;21547;-85
2023/03/02 10:07:28;;;;;;;10.57;7.80;;;;;;;12.80;38.63;100885.09;1452520;89;21473;-87
2023/03/02 10:10:17;;;;;;;11.17;6.77;;;;;;;13.63;37.82;100881.29;1457530;89;21407;-87
2023/03/02 10:12:54;;;;;;;11.50;6.07;;;;;;;13.39;36.97;100876.14;1462652;89;21519;-87
2023/03/02 10:15:39;;;;;;;12.50;7.93;;;;;;;13.39;36.61;100871.33;1462092;89;21392;-86
2023/03/02 10:18:35;;;;;;;10.33;6.63;;;;;;;13.25;36.75;100869.56;1466703;88;22391;-87
2023/03/02 10:21:09;;;;;;;9.93;5.97;;;;;;;12.73;37.28;100865.91;1463051;89;22432;-86
2023/03/02 10:24:10;;;;;;;10.07;6.40;;;;;;;12.29;38.31;100860.47;1463012;89;21459;-86
2023/03/02 10:26:47;;;;;;;14.43;7.53;;;;;;;13.13;37.71;100853.98;1462830;89;21673;-87
2023/03/02 10:29:33;;;;;;;11.70;7.53;;;;;;;13.73;37.64;100849.61;1464004;88;21676;-87
2023/03/02 10:32:30;;;;;;;12.67;8.20;;;;;;;12.96;37.31;100852.52;1464208;89;21437;-85
2023/03/02 10:35:00;;;;;;;12.87;6.47;;;;;;;13.34;38.52;100849.19;1462131;88;21458;-87
2023/03/02 10:37:29;;;;;;;12.15;6.42;;;;;;;13.92;38.02;100841.88;1465249;89;21451;-86
2023/03/02 10:39:56;;;;;;;9.73;6.37;;;;;;;13.74;37.65;100841.13;1385379;89;21414;-86
2023/03/02 10:42:33;;;;;;;11.03;5.97;;;;;;;13.22;38.66;100838.44;1462780;89;22869;-87
2023/03/02 10:45:19;;;;;;;9.93;6.07;;;;;;;12.98;39.20;100834.61;1461831;89;22139;-86
2023/03/02 10:47:46;;;;;;;10.20;7.00;;;;;;;12.82;39.06;100835.78;1464576;89;21898;-88
2023/03/02 10:50:21;;;;;;;11.47;6.33;;;;;;;13.68;38.76;100828.47;1465084;89;21489;-86
2023/03/02 10:52:50;;;;;;;12.57;7.40;;;;;;;13.52;38.24;100819.41;1468656;88;21474;-86
2023/03/02 10:55:17;;;;;;;10.60;6.33;;;;;;;14.11;39.35;100832.82;1464186;88;21407;-87
2023/03/02 10:57:47;;;;;;;13.77;7.37;;;;;;;14.61;39.12;100829.31;1462727;89;21518;-87
2023/03/02 11:00:24;;;;;;;14.13;7.17;;;;;;;14.67;38.70;100827.83;1460493;89;22353;-87
2023/03/02 11:03:01;;;;;;;10.37;6.10;;;;;;;14.87;38.25;100815.88;1463374;89;21459;-87
2023/03/02 11:05:38;;;;;;;13.53;7.30;;;;;;;14.99;37.30;100816.84;1465037;89;21540;-87
2023/03/02 11:08:11;;;;;;;10.67;6.80;;;;;;;15.54;37.33;100809.47;1465927;89;22464;-88
2023/03/02 11:10:42;;;;;;;12.23;7.30;;;;;;;15.86;37.96;100799.22;1460230;88;21481;-88
2023/03/02 11:13:31;;;;;;;10.78;6.53;;;;;;;16.26;38.04;100797.88;1458139;89;22332;-88
2023/03/02 11:16:05;;;;;;;11.23;5.93;;;;;;;16.47;36.99;100798.06;1466652;89;21444;-87
2023/03/02 11:18:41;;;;;;;13.07;5.73;;;;;;;16.83;37.10;100795.67;1465834;88;23323;-88
2023/03/02 11:21:15;;;;;;;8.80;6.25;;;;;;;17.14;37.05;100790.19;1466517;89;21466;-88
2023/03/02 11:24:20;;;;;;;12.53;6.30;;;;;;;17.43;36.76;100783.21;1467299;89;21643;-88
2023/03/02 11:26:56;;;;;;;9.35;6.05;;;;;;;17.60;36.07;100787.37;1463208;88;22516;-88
2023/03/02 11:29:32;;;;;;;13.13;6.60;;;;;;;18.02;35.49;100783.22;1455620;89;21940;-88
2023/03/02 11:32:37;;;;;;;10.93;6.53;;;;;;;18.15;35.07;100779.84;1461980;89;21407;-88
2023/03/02 11:35:35;;;;;;;16.12;9.03;;;;;;;18.24;33.06;100777.89;1457429;88;21614;-88
2023/03/02 11:38:23;;;;;;;9.48;6.10;;;;;;;18.37;34.92;100770.52;1468352;89;22332;-88
2023/03/02 11:41:02;;;;;;;9.85;6.40;;;;;;;18.57;34.15;100769.37;1463682;89;22484;-89
2023/03/02 11:43:28;;;;;;;10.32;6.58;;;;;;;18.93;34.19;100761.25;1464181;89;21459;-89
2023/03/02 11:45:59;;;;;;;13.05;6.75;;;;;;;18.99;32.63;100759.64;1465935;88;22309;-88